sensor_id;sensor_type;location;lat;lon;timestamp;P1;durP1;ratioP1;P2;durP2;ratioP2
32535;SDS011;18974;50.838;4.636;2023-11-18T00:00:26;38.63;;;24.52;;
32535;SDS011;18974;50.838;4.636;2023-11-18T00:02:52;42.17;;;26.38;;
32535;SDS011;18974;50.838;4.636;2023-11-18T00:05:17;41.15;;;26.92;;
32535;SDS011;18974;50.838;4.636;2023-11-18T00:07:43;43.28;;;27.30;;
32535;SDS011;18974;50.838;4.636;2023-11-18T00:10:09;40.67;;;25.25;;
32535;SDS011;18974;50.838;4.636;2023-11-18T00:12:36;41.10;;;26.00;;
32535;SDS011;18974;50.838;4.636;2023-11-18T00:15:02;45.67;;;26.17;;
32535;SDS011;18974;50.838;4.636;2023-11-18T00:17:32;44.47;;;24.08;;
32535;SDS011;18974;50.838;4.636;2023-11-18T00:19:57;44.13;;;24.77;;
32535;SDS011;18974;50.838;4.636;2023-11-18T00:22:23;38.80;;;23.73;;
32535;SDS011;18974;50.838;4.636;2023-11-18T00:24:49;39.50;;;25.08;;
32535;SDS011;18974;50.838;4.636;2023-11-18T00:27:14;39.33;;;25.17;;
32535;SDS011;18974;50.838;4.636;2023-11-18T00:29:40;42.63;;;24.40;;
32535;SDS011;18974;50.838;4.636;2023-11-18T00:32:06;43.25;;;25.88;;
32535;SDS011;18974;50.838;4.636;2023-11-18T00:34:32;41.67;;;24.45;;
32535;SDS011;18974;50.838;4.636;2023-11-18T00:36:58;43.92;;;24.30;;
32535;SDS011;18974;50.838;4.636;2023-11-18T00:39:25;43.90;;;24.42;;
32535;SDS011;18974;50.838;4.636;2023-11-18T00:41:52;35.20;;;22.65;;
32535;SDS011;18974;50.838;4.636;2023-11-18T00:44:18;41.13;;;24.33;;
32535;SDS011;18974;50.838;4.636;2023-11-18T00:46:43;43.13;;;25.65;;
32535;SDS011;18974;50.838;4.636;2023-11-18T00:49:09;48.88;;;27.83;;
32535;SDS011;18974;50.838;4.636;2023-11-18T00:51:36;44.58;;;24.10;;
32535;SDS011;18974;50.838;4.636;2023-11-18T00:54:03;42.67;;;23.92;;
32535;SDS011;18974;50.838;4.636;2023-11-18T00:56:31;38.72;;;24.40;;
32535;SDS011;18974;50.838;4.636;2023-11-18T00:58:57;38.28;;;23.33;;
32535;SDS011;18974;50.838;4.636;2023-11-18T01:01:22;39.28;;;25.10;;
32535;SDS011;18974;50.838;4.636;2023-11-18T01:03:48;45.88;;;26.00;;
32535;SDS011;18974;50.838;4.636;2023-11-18T01:06:14;41.65;;;24.90;;
32535;SDS011;18974;50.838;4.636;2023-11-18T01:08:46;44.10;;;25.20;;
32535;SDS011;18974;50.838;4.636;2023-11-18T01:11:15;38.83;;;24.52;;
32535;SDS011;18974;50.838;4.636;2023-11-18T01:13:49;41.38;;;24.17;;
32535;SDS011;18974;50.838;4.636;2023-11-18T01:16:15;47.22;;;23.40;;
32535;SDS011;18974;50.838;4.636;2023-11-18T01:18:41;41.75;;;25.27;;
32535;SDS011;18974;50.838;4.636;2023-11-18T01:21:08;44.25;;;24.20;;
32535;SDS011;18974;50.838;4.636;2023-11-18T01:23:37;35.88;;;22.40;;
32535;SDS011;18974;50.838;4.636;2023-11-18T01:26:07;37.88;;;24.63;;
32535;SDS011;18974;50.838;4.636;2023-11-18T01:28:33;36.88;;;22.13;;
32535;SDS011;18974;50.838;4.636;2023-11-18T01:31:06;42.60;;;24.00;;
32535;SDS011;18974;50.838;4.636;2023-11-18T01:33:35;36.65;;;22.20;;
32535;SDS011;18974;50.838;4.636;2023-11-18T01:36:07;40.58;;;24.77;;
32535;SDS011;18974;50.838;4.636;2023-11-18T01:38:35;36.47;;;23.45;;
32535;SDS011;18974;50.838;4.636;2023-11-18T01:41:02;36.97;;;21.88;;
32535;SDS011;18974;50.838;4.636;2023-11-18T01:43:31;40.25;;;23.27;;
32535;SDS011;18974;50.838;4.636;2023-11-18T01:46:08;37.28;;;22.02;;
32535;SDS011;18974;50.838;4.636;2023-11-18T01:48:35;38.83;;;22.27;;
32535;SDS011;18974;50.838;4.636;2023-11-18T01:51:03;41.55;;;22.30;;
32535;SDS011;18974;50.838;4.636;2023-11-18T01:53:37;37.35;;;22.45;;
32535;SDS011;18974;50.838;4.636;2023-11-18T01:56:06;34.45;;;20.48;;
32535;SDS011;18974;50.838;4.636;2023-11-18T01:58:33;37.05;;;21.88;;
32535;SDS011;18974;50.838;4.636;2023-11-18T02:01:00;36.30;;;21.02;;
32535;SDS011;18974;50.838;4.636;2023-11-18T02:03:27;41.78;;;21.52;;
32535;SDS011;18974;50.838;4.636;2023-11-18T02:05:53;38.30;;;20.17;;
32535;SDS011;18974;50.838;4.636;2023-11-18T02:08:19;39.25;;;20.23;;
32535;SDS011;18974;50.838;4.636;2023-11-18T02:13:18;43.00;;;20.90;;
32535;SDS011;18974;50.838;4.636;2023-11-18T02:15:55;45.65;;;20.95;;
32535;SDS011;18974;50.838;4.636;2023-11-18T02:18:22;32.15;;;19.52;;
32535;SDS011;18974;50.838;4.636;2023-11-18T02:20:51;44.28;;;20.75;;
32535;SDS011;18974;50.838;4.636;2023-11-18T02:23:22;40.97;;;19.30;;
32535;SDS011;18974;50.838;4.636;2023-11-18T02:25:49;33.95;;;20.65;;
32535;SDS011;18974;50.838;4.636;2023-11-18T02:28:14;34.95;;;18.92;;
32535;SDS011;18974;50.838;4.636;2023-11-18T02:30:40;33.55;;;17.92;;
32535;SDS011;18974;50.838;4.636;2023-11-18T02:36:05;31.52;;;18.52;;
32535;SDS011;18974;50.838;4.636;2023-11-18T02:38:35;34.13;;;19.23;;
32535;SDS011;18974;50.838;4.636;2023-11-18T02:41:10;37.63;;;18.17;;
32535;SDS011;18974;50.838;4.636;2023-11-18T02:43:39;40.40;;;18.45;;
32535;SDS011;18974;50.838;4.636;2023-11-18T02:46:05;31.15;;;18.00;;
32535;SDS011;18974;50.838;4.636;2023-11-18T02:48:37;32.58;;;17.23;;
32535;SDS011;18974;50.838;4.636;2023-11-18T02:51:03;37.08;;;18.25;;
32535;SDS011;18974;50.838;4.636;2023-11-18T02:53:30;38.83;;;18.65;;
32535;SDS011;18974;50.838;4.636;2023-11-18T02:55:55;31.85;;;18.15;;
32535;SDS011;18974;50.838;4.636;2023-11-18T02:58:28;34.10;;;16.65;;
32535;SDS011;18974;50.838;4.636;2023-11-18T03:00:58;32.33;;;16.10;;
32535;SDS011;18974;50.838;4.636;2023-11-18T03:03:24;40.28;;;17.25;;
32535;SDS011;18974;50.838;4.636;2023-11-18T03:05:50;30.83;;;15.43;;
32535;SDS011;18974;50.838;4.636;2023-11-18T03:08:16;29.50;;;16.60;;
32535;SDS011;18974;50.838;4.636;2023-11-18T03:10:42;28.42;;;15.18;;
32535;SDS011;18974;50.838;4.636;2023-11-18T03:13:09;30.92;;;15.35;;
32535;SDS011;18974;50.838;4.636;2023-11-18T03:15:37;31.27;;;15.32;;
32535;SDS011;18974;50.838;4.636;2023-11-18T03:18:03;27.90;;;14.50;;
32535;SDS011;18974;50.838;4.636;2023-11-18T03:20:30;32.97;;;15.93;;
32535;SDS011;18974;50.838;4.636;2023-11-18T03:22:59;28.02;;;15.27;;
32535;SDS011;18974;50.838;4.636;2023-11-18T03:25:28;26.75;;;14.35;;
32535;SDS011;18974;50.838;4.636;2023-11-18T03:27:54;29.92;;;15.13;;
32535;SDS011;18974;50.838;4.636;2023-11-18T03:30:19;35.70;;;13.98;;
32535;SDS011;18974;50.838;4.636;2023-11-18T03:32:45;23.58;;;14.07;;
32535;SDS011;18974;50.838;4.636;2023-11-18T03:35:11;32.67;;;15.05;;
32535;SDS011;18974;50.838;4.636;2023-11-18T03:37:37;26.35;;;13.90;;
32535;SDS011;18974;50.838;4.636;2023-11-18T03:40:06;27.55;;;14.35;;
32535;SDS011;18974;50.838;4.636;2023-11-18T03:42:39;31.10;;;13.65;;
32535;SDS011;18974;50.838;4.636;2023-11-18T03:45:11;28.10;;;13.68;;
32535;SDS011;18974;50.838;4.636;2023-11-18T03:47:39;28.45;;;12.73;;
32535;SDS011;18974;50.838;4.636;2023-11-18T03:50:05;28.38;;;13.48;;
32535;SDS011;18974;50.838;4.636;2023-11-18T03:52:33;19.77;;;12.40;;
32535;SDS011;18974;50.838;4.636;2023-11-18T03:55:02;36.28;;;14.80;;
32535;SDS011;18974;50.838;4.636;2023-11-18T03:57:28;25.15;;;13.25;;
32535;SDS011;18974;50.838;4.636;2023-11-18T03:59:54;28.80;;;13.73;;
32535;SDS011;18974;50.838;4.636;2023-11-18T04:02:20;27.00;;;13.52;;
32535;SDS011;18974;50.838;4.636;2023-11-18T04:04:45;24.85;;;13.00;;
32535;SDS011;18974;50.838;4.636;2023-11-18T04:07:11;32.67;;;13.40;;
32535;SDS011;18974;50.838;4.636;2023-11-18T04:09:36;30.98;;;13.45;;
32535;SDS011;18974;50.838;4.636;2023-11-18T04:12:02;26.88;;;12.45;;
32535;SDS011;18974;50.838;4.636;2023-11-18T04:14:28;31.45;;;13.32;;
32535;SDS011;18974;50.838;4.636;2023-11-18T04:16:54;39.30;;;14.45;;
32535;SDS011;18974;50.838;4.636;2023-11-18T04:19:20;25.05;;;12.65;;
32535;SDS011;18974;50.838;4.636;2023-11-18T04:21:46;24.80;;;12.50;;
32535;SDS011;18974;50.838;4.636;2023-11-18T04:24:14;21.08;;;10.95;;
32535;SDS011;18974;50.838;4.636;2023-11-18T04:26:40;26.30;;;10.57;;
32535;SDS011;18974;50.838;4.636;2023-11-18T04:29:06;31.17;;;10.30;;
32535;SDS011;18974;50.838;4.636;2023-11-18T04:31:32;30.58;;;10.65;;
32535;SDS011;18974;50.838;4.636;2023-11-18T04:33:59;23.92;;;9.93;;
32535;SDS011;18974;50.838;4.636;2023-11-18T04:36:25;30.65;;;11.10;;
32535;SDS011;18974;50.838;4.636;2023-11-18T04:38:51;21.63;;;10.20;;
32535;SDS011;18974;50.838;4.636;2023-11-18T04:41:17;20.50;;;9.85;;
32535;SDS011;18974;50.838;4.636;2023-11-18T04:43:43;26.70;;;10.02;;
32535;SDS011;18974;50.838;4.636;2023-11-18T04:46:08;28.83;;;10.75;;
32535;SDS011;18974;50.838;4.636;2023-11-18T04:48:35;30.13;;;10.35;;
32535;SDS011;18974;50.838;4.636;2023-11-18T04:51:01;21.42;;;9.98;;
32535;SDS011;18974;50.838;4.636;2023-11-18T04:53:27;20.92;;;9.18;;
32535;SDS011;18974;50.838;4.636;2023-11-18T04:55:52;30.20;;;10.35;;
32535;SDS011;18974;50.838;4.636;2023-11-18T04:58:18;25.92;;;10.13;;
32535;SDS011;18974;50.838;4.636;2023-11-18T05:00:44;31.42;;;10.43;;
32535;SDS011;18974;50.838;4.636;2023-11-18T05:03:10;24.95;;;9.65;;
32535;SDS011;18974;50.838;4.636;2023-11-18T05:05:36;18.73;;;9.27;;
32535;SDS011;18974;50.838;4.636;2023-11-18T05:08:05;31.30;;;10.07;;
32535;SDS011;18974;50.838;4.636;2023-11-18T05:10:35;26.77;;;9.77;;
32535;SDS011;18974;50.838;4.636;2023-11-18T05:13:02;28.05;;;10.35;;
32535;SDS011;18974;50.838;4.636;2023-11-18T05:15:28;20.38;;;8.65;;
32535;SDS011;18974;50.838;4.636;2023-11-18T05:17:55;22.13;;;8.52;;
32535;SDS011;18974;50.838;4.636;2023-11-18T05:20:21;30.63;;;9.20;;
32535;SDS011;18974;50.838;4.636;2023-11-18T05:22:47;26.52;;;7.90;;
32535;SDS011;18974;50.838;4.636;2023-11-18T05:25:13;20.52;;;7.38;;
32535;SDS011;18974;50.838;4.636;2023-11-18T05:27:39;15.70;;;7.18;;
32535;SDS011;18974;50.838;4.636;2023-11-18T05:30:05;17.95;;;7.00;;
32535;SDS011;18974;50.838;4.636;2023-11-18T05:32:34;21.13;;;6.93;;
32535;SDS011;18974;50.838;4.636;2023-11-18T05:35:00;24.77;;;7.05;;
32535;SDS011;18974;50.838;4.636;2023-11-18T05:37:26;20.58;;;6.60;;
32535;SDS011;18974;50.838;4.636;2023-11-18T05:39:59;29.50;;;7.15;;
32535;SDS011;18974;50.838;4.636;2023-11-18T05:42:31;18.75;;;6.28;;
32535;SDS011;18974;50.838;4.636;2023-11-18T05:44:57;16.08;;;6.10;;
32535;SDS011;18974;50.838;4.636;2023-11-18T05:47:25;16.75;;;6.15;;
32535;SDS011;18974;50.838;4.636;2023-11-18T05:49:51;13.93;;;4.97;;
32535;SDS011;18974;50.838;4.636;2023-11-18T05:52:18;17.90;;;6.05;;
32535;SDS011;18974;50.838;4.636;2023-11-18T05:54:45;24.13;;;6.68;;
32535;SDS011;18974;50.838;4.636;2023-11-18T05:57:12;13.23;;;5.18;;
32535;SDS011;18974;50.838;4.636;2023-11-18T05:59:39;30.48;;;5.35;;
32535;SDS011;18974;50.838;4.636;2023-11-18T06:02:05;15.88;;;4.97;;
32535;SDS011;18974;50.838;4.636;2023-11-18T06:04:30;14.07;;;4.45;;
32535;SDS011;18974;50.838;4.636;2023-11-18T06:06:56;16.80;;;5.07;;
32535;SDS011;18974;50.838;4.636;2023-11-18T06:09:22;13.77;;;4.80;;
32535;SDS011;18974;50.838;4.636;2023-11-18T06:11:50;15.15;;;4.72;;
32535;SDS011;18974;50.838;4.636;2023-11-18T06:14:18;18.08;;;4.20;;
32535;SDS011;18974;50.838;4.636;2023-11-18T06:16:44;14.93;;;4.43;;
32535;SDS011;18974;50.838;4.636;2023-11-18T06:19:12;16.08;;;5.07;;
32535;SDS011;18974;50.838;4.636;2023-11-18T06:21:39;15.13;;;5.07;;
32535;SDS011;18974;50.838;4.636;2023-11-18T06:24:05;18.27;;;5.05;;
32535;SDS011;18974;50.838;4.636;2023-11-18T06:26:31;21.23;;;4.53;;
32535;SDS011;18974;50.838;4.636;2023-11-18T06:29:00;12.73;;;4.45;;
32535;SDS011;18974;50.838;4.636;2023-11-18T06:31:26;20.85;;;4.32;;
32535;SDS011;18974;50.838;4.636;2023-11-18T06:33:54;15.18;;;4.15;;
32535;SDS011;18974;50.838;4.636;2023-11-18T06:36:20;20.40;;;3.70;;
32535;SDS011;18974;50.838;4.636;2023-11-18T06:38:47;16.92;;;4.15;;
32535;SDS011;18974;50.838;4.636;2023-11-18T06:41:17;15.40;;;4.35;;
32535;SDS011;18974;50.838;4.636;2023-11-18T06:43:45;15.45;;;3.92;;
32535;SDS011;18974;50.838;4.636;2023-11-18T06:46:22;18.60;;;5.43;;
32535;SDS011;18974;50.838;4.636;2023-11-18T06:48:54;11.65;;;3.05;;
32535;SDS011;18974;50.838;4.636;2023-11-18T06:51:24;18.50;;;3.90;;
32535;SDS011;18974;50.838;4.636;2023-11-18T06:53:52;12.10;;;3.92;;
32535;SDS011;18974;50.838;4.636;2023-11-18T06:56:22;20.27;;;4.55;;
32535;SDS011;18974;50.838;4.636;2023-11-18T06:58:51;11.98;;;3.22;;
32535;SDS011;18974;50.838;4.636;2023-11-18T07:01:18;9.05;;;3.13;;
32535;SDS011;18974;50.838;4.636;2023-11-18T07:03:44;12.77;;;3.28;;
32535;SDS011;18974;50.838;4.636;2023-11-18T07:06:10;10.95;;;3.03;;
32535;SDS011;18974;50.838;4.636;2023-11-18T07:08:39;18.58;;;3.75;;
32535;SDS011;18974;50.838;4.636;2023-11-18T07:11:05;14.35;;;3.45;;
32535;SDS011;18974;50.838;4.636;2023-11-18T07:13:31;18.60;;;3.90;;
32535;SDS011;18974;50.838;4.636;2023-11-18T07:15:59;12.27;;;3.03;;
32535;SDS011;18974;50.838;4.636;2023-11-18T07:18:28;11.23;;;3.75;;
32535;SDS011;18974;50.838;4.636;2023-11-18T07:21:01;14.95;;;3.28;;
32535;SDS011;18974;50.838;4.636;2023-11-18T07:23:29;16.75;;;4.22;;
32535;SDS011;18974;50.838;4.636;2023-11-18T07:25:55;14.88;;;3.40;;
32535;SDS011;18974;50.838;4.636;2023-11-18T07:28:21;12.32;;;4.22;;
32535;SDS011;18974;50.838;4.636;2023-11-18T07:30:47;21.95;;;4.00;;
32535;SDS011;18974;50.838;4.636;2023-11-18T07:33:14;14.15;;;3.38;;
32535;SDS011;18974;50.838;4.636;2023-11-18T07:35:40;22.55;;;4.50;;
32535;SDS011;18974;50.838;4.636;2023-11-18T07:38:07;17.80;;;4.35;;
32535;SDS011;18974;50.838;4.636;2023-11-18T07:40:33;17.20;;;3.72;;
32535;SDS011;18974;50.838;4.636;2023-11-18T07:42:59;12.63;;;4.45;;
32535;SDS011;18974;50.838;4.636;2023-11-18T07:53:06;19.50;;;4.70;;
32535;SDS011;18974;50.838;4.636;2023-11-18T07:55:33;17.52;;;3.80;;
32535;SDS011;18974;50.838;4.636;2023-11-18T07:57:59;18.48;;;4.40;;
32535;SDS011;18974;50.838;4.636;2023-11-18T08:00:27;16.38;;;4.30;;
32535;SDS011;18974;50.838;4.636;2023-11-18T08:02:56;12.48;;;3.63;;
32535;SDS011;18974;50.838;4.636;2023-11-18T08:05:25;18.05;;;4.30;;
32535;SDS011;18974;50.838;4.636;2023-11-18T08:07:51;16.92;;;4.18;;
32535;SDS011;18974;50.838;4.636;2023-11-18T08:10:18;13.73;;;4.10;;
32535;SDS011;18974;50.838;4.636;2023-11-18T08:12:44;18.02;;;4.20;;
32535;SDS011;18974;50.838;4.636;2023-11-18T08:15:11;12.27;;;3.83;;
32535;SDS011;18974;50.838;4.636;2023-11-18T08:17:37;20.85;;;4.47;;
32535;SDS011;18974;50.838;4.636;2023-11-18T08:20:03;12.88;;;3.88;;
32535;SDS011;18974;50.838;4.636;2023-11-18T08:22:39;16.90;;;5.05;;
32535;SDS011;18974;50.838;4.636;2023-11-18T08:25:06;12.27;;;4.32;;
32535;SDS011;18974;50.838;4.636;2023-11-18T08:27:33;15.15;;;4.60;;
32535;SDS011;18974;50.838;4.636;2023-11-18T08:30:00;13.27;;;4.82;;
32535;SDS011;18974;50.838;4.636;2023-11-18T08:32:30;14.25;;;4.07;;
32535;SDS011;18974;50.838;4.636;2023-11-18T08:34:56;16.02;;;4.78;;
32535;SDS011;18974;50.838;4.636;2023-11-18T08:37:22;14.02;;;4.57;;
32535;SDS011;18974;50.838;4.636;2023-11-18T08:39:48;16.05;;;4.63;;
32535;SDS011;18974;50.838;4.636;2023-11-18T08:42:14;18.63;;;5.50;;
32535;SDS011;18974;50.838;4.636;2023-11-18T08:44:41;15.23;;;5.75;;
32535;SDS011;18974;50.838;4.636;2023-11-18T08:47:08;16.10;;;4.90;;
32535;SDS011;18974;50.838;4.636;2023-11-18T08:49:34;20.30;;;5.43;;
32535;SDS011;18974;50.838;4.636;2023-11-18T08:51:59;17.13;;;5.10;;
32535;SDS011;18974;50.838;4.636;2023-11-18T08:54:26;19.95;;;5.38;;
32535;SDS011;18974;50.838;4.636;2023-11-18T08:57:01;19.57;;;5.30;;
32535;SDS011;18974;50.838;4.636;2023-11-18T08:59:28;22.52;;;6.40;;
32535;SDS011;18974;50.838;4.636;2023-11-18T09:01:55;16.45;;;5.97;;
32535;SDS011;18974;50.838;4.636;2023-11-18T09:04:24;15.60;;;6.20;;
32535;SDS011;18974;50.838;4.636;2023-11-18T09:06:53;15.07;;;6.30;;
32535;SDS011;18974;50.838;4.636;2023-11-18T09:09:22;17.35;;;5.95;;
32535;SDS011;18974;50.838;4.636;2023-11-18T09:11:56;22.48;;;6.40;;
32535;SDS011;18974;50.838;4.636;2023-11-18T09:14:25;21.98;;;6.97;;
32535;SDS011;18974;50.838;4.636;2023-11-18T09:16:52;16.40;;;6.40;;
32535;SDS011;18974;50.838;4.636;2023-11-18T09:19:21;19.70;;;6.20;;
32535;SDS011;18974;50.838;4.636;2023-11-18T09:21:47;13.30;;;6.45;;
32535;SDS011;18974;50.838;4.636;2023-11-18T09:24:14;26.17;;;6.72;;
32535;SDS011;18974;50.838;4.636;2023-11-18T09:26:44;17.88;;;7.35;;
32535;SDS011;18974;50.838;4.636;2023-11-18T09:29:13;20.67;;;6.55;;
32535;SDS011;18974;50.838;4.636;2023-11-18T09:31:43;19.98;;;6.35;;
32535;SDS011;18974;50.838;4.636;2023-11-18T09:34:13;17.73;;;5.75;;
32535;SDS011;18974;50.838;4.636;2023-11-18T09:36:42;21.52;;;6.82;;
32535;SDS011;18974;50.838;4.636;2023-11-18T09:39:09;16.00;;;6.65;;
32535;SDS011;18974;50.838;4.636;2023-11-18T09:41:49;17.10;;;6.13;;
32535;SDS011;18974;50.838;4.636;2023-11-18T09:44:16;19.30;;;6.80;;
32535;SDS011;18974;50.838;4.636;2023-11-18T09:46:43;23.17;;;7.95;;
32535;SDS011;18974;50.838;4.636;2023-11-18T09:49:27;15.35;;;6.50;;
32535;SDS011;18974;50.838;4.636;2023-11-18T09:52:04;20.60;;;6.50;;
32535;SDS011;18974;50.838;4.636;2023-11-18T09:54:41;15.82;;;6.63;;
32535;SDS011;18974;50.838;4.636;2023-11-18T09:57:31;21.60;;;8.10;;
32535;SDS011;18974;50.838;4.636;2023-11-18T10:00:05;18.50;;;7.35;;
32535;SDS011;18974;50.838;4.636;2023-11-18T10:02:50;17.65;;;6.28;;
32535;SDS011;18974;50.838;4.636;2023-11-18T10:05:17;15.43;;;6.65;;
32535;SDS011;18974;50.838;4.636;2023-11-18T10:07:47;16.95;;;6.78;;
32535;SDS011;18974;50.838;4.636;2023-11-18T10:10:14;15.95;;;7.03;;
32535;SDS011;18974;50.838;4.636;2023-11-18T10:12:43;20.25;;;7.22;;
32535;SDS011;18974;50.838;4.636;2023-11-18T10:15:16;22.77;;;7.93;;
32535;SDS011;18974;50.838;4.636;2023-11-18T10:17:43;14.35;;;7.28;;
32535;SDS011;18974;50.838;4.636;2023-11-18T10:20:44;16.05;;;6.97;;
32535;SDS011;18974;50.838;4.636;2023-11-18T10:23:11;16.27;;;6.57;;
32535;SDS011;18974;50.838;4.636;2023-11-18T10:28:22;19.30;;;7.05;;
32535;SDS011;18974;50.838;4.636;2023-11-18T10:30:56;18.65;;;6.75;;
32535;SDS011;18974;50.838;4.636;2023-11-18T10:33:35;15.25;;;6.82;;
32535;SDS011;18974;50.838;4.636;2023-11-18T10:36:16;14.02;;;6.25;;
32535;SDS011;18974;50.838;4.636;2023-11-18T10:38:47;15.50;;;6.30;;
32535;SDS011;18974;50.838;4.636;2023-11-18T10:41:14;11.23;;;6.03;;
32535;SDS011;18974;50.838;4.636;2023-11-18T10:43:43;18.05;;;6.25;;
32535;SDS011;18974;50.838;4.636;2023-11-18T10:46:10;15.68;;;6.47;;
32535;SDS011;18974;50.838;4.636;2023-11-18T10:51:10;20.65;;;9.50;;
32535;SDS011;18974;50.838;4.636;2023-11-18T10:53:37;22.35;;;11.98;;
32535;SDS011;18974;50.838;4.636;2023-11-18T10:56:04;13.40;;;8.63;;
32535;SDS011;18974;50.838;4.636;2023-11-18T10:58:37;24.15;;;10.43;;
32535;SDS011;18974;50.838;4.636;2023-11-18T11:01:06;18.45;;;9.02;;
32535;SDS011;18974;50.838;4.636;2023-11-18T11:03:51;13.35;;;6.05;;
32535;SDS011;18974;50.838;4.636;2023-11-18T11:06:20;28.00;;;14.55;;
32535;SDS011;18974;50.838;4.636;2023-11-18T11:08:54;24.70;;;10.65;;
32535;SDS011;18974;50.838;4.636;2023-11-18T11:11:20;13.73;;;6.57;;
32535;SDS011;18974;50.838;4.636;2023-11-18T11:13:48;9.88;;;5.03;;
32535;SDS011;18974;50.838;4.636;2023-11-18T11:16:18;10.35;;;4.35;;
32535;SDS011;18974;50.838;4.636;2023-11-18T11:18:48;9.10;;;4.68;;
32535;SDS011;18974;50.838;4.636;2023-11-18T11:21:20;8.85;;;4.15;;
32535;SDS011;18974;50.838;4.636;2023-11-18T11:23:53;13.73;;;3.97;;
32535;SDS011;18974;50.838;4.636;2023-11-18T11:26:32;10.40;;;3.95;;
32535;SDS011;18974;50.838;4.636;2023-11-18T11:31:52;9.20;;;3.67;;
32535;SDS011;18974;50.838;4.636;2023-11-18T11:37:16;11.32;;;3.65;;
32535;SDS011;18974;50.838;4.636;2023-11-18T11:39:44;8.30;;;3.33;;
32535;SDS011;18974;50.838;4.636;2023-11-18T11:42:13;8.85;;;3.50;;
32535;SDS011;18974;50.838;4.636;2023-11-18T11:44:42;8.40;;;2.92;;
32535;SDS011;18974;50.838;4.636;2023-11-18T11:47:09;5.25;;;2.83;;
32535;SDS011;18974;50.838;4.636;2023-11-18T11:50:02;5.18;;;3.00;;
32535;SDS011;18974;50.838;4.636;2023-11-18T11:52:48;9.32;;;2.78;;
32535;SDS011;18974;50.838;4.636;2023-11-18T11:55:28;10.15;;;3.05;;
32535;SDS011;18974;50.838;4.636;2023-11-18T11:58:02;6.68;;;2.47;;
32535;SDS011;18974;50.838;4.636;2023-11-18T12:00:27;10.35;;;2.42;;
32535;SDS011;18974;50.838;4.636;2023-11-18T12:02:59;12.35;;;2.45;;
32535;SDS011;18974;50.838;4.636;2023-11-18T12:05:29;6.97;;;2.10;;
32535;SDS011;18974;50.838;4.636;2023-11-18T12:07:58;4.88;;;2.10;;
32535;SDS011;18974;50.838;4.636;2023-11-18T12:10:31;3.97;;;2.30;;
32535;SDS011;18974;50.838;4.636;2023-11-18T12:13:06;2.85;;;1.67;;
32535;SDS011;18974;50.838;4.636;2023-11-18T12:15:47;6.53;;;2.05;;
32535;SDS011;18974;50.838;4.636;2023-11-18T12:18:18;7.47;;;1.80;;
32535;SDS011;18974;50.838;4.636;2023-11-18T12:20:47;5.95;;;1.70;;
32535;SDS011;18974;50.838;4.636;2023-11-18T12:23:15;4.53;;;1.50;;
32535;SDS011;18974;50.838;4.636;2023-11-18T12:25:43;4.35;;;1.48;;
32535;SDS011;18974;50.838;4.636;2023-11-18T12:28:16;8.07;;;1.30;;
32535;SDS011;18974;50.838;4.636;2023-11-18T12:30:47;3.80;;;1.77;;
32535;SDS011;18974;50.838;4.636;2023-11-18T12:33:25;4.95;;;1.52;;
32535;SDS011;18974;50.838;4.636;2023-11-18T12:41:42;6.22;;;1.50;;
32535;SDS011;18974;50.838;4.636;2023-11-18T12:44:16;3.83;;;1.00;;
32535;SDS011;18974;50.838;4.636;2023-11-18T12:47:03;2.53;;;1.27;;
32535;SDS011;18974;50.838;4.636;2023-11-18T12:49:46;1.88;;;1.30;;
